Terminal Aerodrome Forecast
Issued by NWS Grand Forks, ND

Home | Current Version | Previous Version | Text Only | Print | Product List | Glossary On
Versions: 1 2 3 4 5 6 7 8 9 10 11 12
000
FTUS43 KFGF 251700
TAFFAR
TAF
KFAR 251721Z 2518/2618 31013G18KT P6SM SKC
     FM252300 VRB04KT P6SM SKC
     FM261000 14010KT P6SM SCT250
     FM261500 14016G21KT P6SM SCT250=

USA.gov is the U.S. government's official web portal to all federal, state and local government web resources and services.